sensor_id;sensor_type;location;lat;lon;timestamp;P1;durP1;ratioP1;P2;durP2;ratioP2
59062;SDS011;44851;45.648;9.004;2022-09-09T00:01:08;15.00;;;12.20;;
59062;SDS011;44851;45.648;9.004;2022-09-09T00:09:20;12.37;;;11.07;;
59062;SDS011;44851;45.648;9.004;2022-09-09T00:15:11;13.33;;;11.20;;
59062;SDS011;44851;45.648;9.004;2022-09-09T00:17:48;12.23;;;11.03;;
59062;SDS011;44851;45.648;9.004;2022-09-09T00:20:44;13.10;;;11.80;;
59062;SDS011;44851;45.648;9.004;2022-09-09T00:23:20;14.80;;;13.03;;
59062;SDS011;44851;45.648;9.004;2022-09-09T00:25:57;13.33;;;11.73;;
59062;SDS011;44851;45.648;9.004;2022-09-09T00:28:25;14.53;;;12.73;;
59062;SDS011;44851;45.648;9.004;2022-09-09T00:30:52;13.27;;;11.87;;
59062;SDS011;44851;45.648;9.004;2022-09-09T00:33:19;14.97;;;13.37;;
59062;SDS011;44851;45.648;9.004;2022-09-09T00:35:48;14.60;;;13.20;;
59062;SDS011;44851;45.648;9.004;2022-09-09T00:43:30;14.57;;;13.17;;
59062;SDS011;44851;45.648;9.004;2022-09-09T00:48:58;16.00;;;14.50;;
59062;SDS011;44851;45.648;9.004;2022-09-09T00:51:43;16.57;;;14.37;;
59062;SDS011;44851;45.648;9.004;2022-09-09T00:57:31;16.03;;;14.20;;
59062;SDS011;44851;45.648;9.004;2022-09-09T01:03:27;16.17;;;14.57;;
59062;SDS011;44851;45.648;9.004;2022-09-09T01:19:37;17.90;;;16.00;;
59062;SDS011;44851;45.648;9.004;2022-09-09T01:22:26;16.57;;;14.83;;
59062;SDS011;44851;45.648;9.004;2022-09-09T01:28:03;19.07;;;17.03;;
59062;SDS011;44851;45.648;9.004;2022-09-09T01:30:35;18.30;;;16.20;;
59062;SDS011;44851;45.648;9.004;2022-09-09T01:33:03;17.83;;;16.13;;
59062;SDS011;44851;45.648;9.004;2022-09-09T01:35:32;18.17;;;16.33;;
59062;SDS011;44851;45.648;9.004;2022-09-09T01:38:00;18.33;;;16.43;;
59062;SDS011;44851;45.648;9.004;2022-09-09T01:40:25;18.30;;;16.53;;
59062;SDS011;44851;45.648;9.004;2022-09-09T01:42:51;19.00;;;17.10;;
59062;SDS011;44851;45.648;9.004;2022-09-09T01:45:17;17.53;;;15.33;;
59062;SDS011;44851;45.648;9.004;2022-09-09T01:47:44;18.97;;;16.63;;
59062;SDS011;44851;45.648;9.004;2022-09-09T01:50:10;19.17;;;16.73;;
59062;SDS011;44851;45.648;9.004;2022-09-09T01:52:39;18.87;;;17.10;;
59062;SDS011;44851;45.648;9.004;2022-09-09T01:55:06;17.77;;;15.73;;
59062;SDS011;44851;45.648;9.004;2022-09-09T01:58:36;18.67;;;16.73;;
59062;SDS011;44851;45.648;9.004;2022-09-09T02:00:45;17.90;;;16.00;;
59062;SDS011;44851;45.648;9.004;2022-09-09T02:03:33;17.67;;;15.87;;
59062;SDS011;44851;45.648;9.004;2022-09-09T02:06:05;17.27;;;15.47;;
59062;SDS011;44851;45.648;9.004;2022-09-09T02:08:45;17.70;;;15.70;;
59062;SDS011;44851;45.648;9.004;2022-09-09T02:11:15;17.07;;;15.27;;
59062;SDS011;44851;45.648;9.004;2022-09-09T02:13:46;16.57;;;14.93;;
59062;SDS011;44851;45.648;9.004;2022-09-09T02:16:35;16.13;;;14.50;;
59062;SDS011;44851;45.648;9.004;2022-09-09T02:19:08;16.50;;;15.00;;
59062;SDS011;44851;45.648;9.004;2022-09-09T02:21:56;16.67;;;14.37;;
59062;SDS011;44851;45.648;9.004;2022-09-09T02:24:24;16.17;;;14.47;;
59062;SDS011;44851;45.648;9.004;2022-09-09T02:26:52;15.40;;;13.90;;
59062;SDS011;44851;45.648;9.004;2022-09-09T02:29:27;16.87;;;15.13;;
59062;SDS011;44851;45.648;9.004;2022-09-09T02:32:00;16.77;;;14.97;;
59062;SDS011;44851;45.648;9.004;2022-09-09T02:34:30;17.47;;;15.57;;
59062;SDS011;44851;45.648;9.004;2022-09-09T02:36:58;16.77;;;15.17;;
59062;SDS011;44851;45.648;9.004;2022-09-09T02:39:25;16.47;;;14.73;;
59062;SDS011;44851;45.648;9.004;2022-09-09T02:41:51;16.77;;;15.17;;
59062;SDS011;44851;45.648;9.004;2022-09-09T02:44:18;16.87;;;14.53;;
59062;SDS011;44851;45.648;9.004;2022-09-09T02:49:17;28.43;;;20.57;;
59062;SDS011;44851;45.648;9.004;2022-09-09T02:52:12;21.67;;;18.57;;
59062;SDS011;44851;45.648;9.004;2022-09-09T02:54:41;21.87;;;19.63;;
59062;SDS011;44851;45.648;9.004;2022-09-09T02:57:12;22.50;;;20.17;;
59062;SDS011;44851;45.648;9.004;2022-09-09T02:59:41;23.00;;;20.60;;
59062;SDS011;44851;45.648;9.004;2022-09-09T03:02:08;22.90;;;20.33;;
59062;SDS011;44851;45.648;9.004;2022-09-09T03:04:35;23.47;;;20.97;;
59062;SDS011;44851;45.648;9.004;2022-09-09T03:07:00;27.30;;;21.13;;
59062;SDS011;44851;45.648;9.004;2022-09-09T03:09:25;23.63;;;19.97;;
59062;SDS011;44851;45.648;9.004;2022-09-09T03:11:51;22.00;;;19.70;;
59062;SDS011;44851;45.648;9.004;2022-09-09T03:14:17;22.97;;;20.67;;
59062;SDS011;44851;45.648;9.004;2022-09-09T03:16:46;23.77;;;21.17;;
59062;SDS011;44851;45.648;9.004;2022-09-09T03:19:12;23.23;;;20.97;;
59062;SDS011;44851;45.648;9.004;2022-09-09T03:21:37;25.77;;;22.17;;
59062;SDS011;44851;45.648;9.004;2022-09-09T03:24:03;23.40;;;21.00;;
59062;SDS011;44851;45.648;9.004;2022-09-09T03:26:29;24.63;;;21.23;;
59062;SDS011;44851;45.648;9.004;2022-09-09T03:28:55;24.60;;;22.10;;
59062;SDS011;44851;45.648;9.004;2022-09-09T03:31:21;23.83;;;21.33;;
59062;SDS011;44851;45.648;9.004;2022-09-09T03:33:46;25.63;;;22.87;;
59062;SDS011;44851;45.648;9.004;2022-09-09T03:36:12;25.83;;;23.23;;
59062;SDS011;44851;45.648;9.004;2022-09-09T03:38:38;25.87;;;23.00;;
59062;SDS011;44851;45.648;9.004;2022-09-09T03:41:04;24.77;;;22.27;;
59062;SDS011;44851;45.648;9.004;2022-09-09T03:43:32;25.27;;;22.80;;
59062;SDS011;44851;45.648;9.004;2022-09-09T03:45:58;25.13;;;22.60;;
59062;SDS011;44851;45.648;9.004;2022-09-09T03:48:23;24.20;;;21.67;;
59062;SDS011;44851;45.648;9.004;2022-09-09T03:50:50;24.10;;;21.60;;
59062;SDS011;44851;45.648;9.004;2022-09-09T03:53:18;24.10;;;21.73;;
59062;SDS011;44851;45.648;9.004;2022-09-09T03:55:49;24.97;;;22.37;;
59062;SDS011;44851;45.648;9.004;2022-09-09T03:58:19;23.60;;;21.30;;
59062;SDS011;44851;45.648;9.004;2022-09-09T04:00:55;24.83;;;22.23;;
59062;SDS011;44851;45.648;9.004;2022-09-09T04:03:22;24.90;;;22.30;;
59062;SDS011;44851;45.648;9.004;2022-09-09T04:05:49;25.20;;;22.60;;
59062;SDS011;44851;45.648;9.004;2022-09-09T04:08:21;25.27;;;22.67;;
59062;SDS011;44851;45.648;9.004;2022-09-09T04:10:48;25.87;;;23.33;;
59062;SDS011;44851;45.648;9.004;2022-09-09T04:13:14;26.40;;;23.43;;
59062;SDS011;44851;45.648;9.004;2022-09-09T04:15:42;26.47;;;23.83;;
59062;SDS011;44851;45.648;9.004;2022-09-09T04:18:10;28.03;;;25.03;;
59062;SDS011;44851;45.648;9.004;2022-09-09T04:20:37;27.63;;;24.90;;
59062;SDS011;44851;45.648;9.004;2022-09-09T04:23:03;27.00;;;24.33;;
59062;SDS011;44851;45.648;9.004;2022-09-09T04:25:29;26.17;;;23.67;;
59062;SDS011;44851;45.648;9.004;2022-09-09T04:27:55;27.90;;;25.13;;
59062;SDS011;44851;45.648;9.004;2022-09-09T04:30:21;28.13;;;25.23;;
59062;SDS011;44851;45.648;9.004;2022-09-09T04:32:47;21.00;;;19.00;;
59062;SDS011;44851;45.648;9.004;2022-09-09T04:35:12;12.13;;;10.87;;
59062;SDS011;44851;45.648;9.004;2022-09-09T04:37:37;6.40;;;5.80;;
59062;SDS011;44851;45.648;9.004;2022-09-09T04:40:03;5.33;;;4.70;;
59062;SDS011;44851;45.648;9.004;2022-09-09T04:42:29;5.00;;;4.50;;
59062;SDS011;44851;45.648;9.004;2022-09-09T04:44:54;5.10;;;3.53;;
59062;SDS011;44851;45.648;9.004;2022-09-09T04:47:20;4.13;;;3.83;;
59062;SDS011;44851;45.648;9.004;2022-09-09T04:49:46;5.03;;;4.00;;
59062;SDS011;44851;45.648;9.004;2022-09-09T04:52:11;5.73;;;3.80;;
59062;SDS011;44851;45.648;9.004;2022-09-09T04:54:37;4.17;;;3.77;;
59062;SDS011;44851;45.648;9.004;2022-09-09T04:57:02;5.20;;;4.20;;
59062;SDS011;44851;45.648;9.004;2022-09-09T04:59:27;4.77;;;4.23;;
59062;SDS011;44851;45.648;9.004;2022-09-09T05:01:53;4.57;;;4.10;;
59062;SDS011;44851;45.648;9.004;2022-09-09T05:04:20;4.10;;;3.70;;
59062;SDS011;44851;45.648;9.004;2022-09-09T05:06:45;5.17;;;3.63;;
59062;SDS011;44851;45.648;9.004;2022-09-09T05:09:11;4.13;;;3.70;;
59062;SDS011;44851;45.648;9.004;2022-09-09T05:11:36;3.23;;;2.93;;
59062;SDS011;44851;45.648;9.004;2022-09-09T05:14:02;4.23;;;2.70;;
59062;SDS011;44851;45.648;9.004;2022-09-09T05:16:28;3.67;;;2.80;;
59062;SDS011;44851;45.648;9.004;2022-09-09T05:18:53;3.07;;;2.77;;
59062;SDS011;44851;45.648;9.004;2022-09-09T05:21:20;2.90;;;2.50;;
59062;SDS011;44851;45.648;9.004;2022-09-09T05:23:48;3.10;;;2.17;;
59062;SDS011;44851;45.648;9.004;2022-09-09T05:26:17;2.30;;;2.10;;
59062;SDS011;44851;45.648;9.004;2022-09-09T05:28:45;2.40;;;2.17;;
59062;SDS011;44851;45.648;9.004;2022-09-09T05:31:11;1.80;;;1.70;;
59062;SDS011;44851;45.648;9.004;2022-09-09T05:33:38;2.07;;;1.50;;
59062;SDS011;44851;45.648;9.004;2022-09-09T05:36:08;2.50;;;1.73;;
59062;SDS011;44851;45.648;9.004;2022-09-09T05:38:38;1.70;;;1.50;;
59062;SDS011;44851;45.648;9.004;2022-09-09T05:41:04;1.80;;;1.60;;
59062;SDS011;44851;45.648;9.004;2022-09-09T05:43:30;1.83;;;1.43;;
59062;SDS011;44851;45.648;9.004;2022-09-09T05:46:01;2.40;;;1.60;;
59062;SDS011;44851;45.648;9.004;2022-09-09T05:48:30;1.67;;;1.50;;
59062;SDS011;44851;45.648;9.004;2022-09-09T05:50:57;1.67;;;1.50;;
59062;SDS011;44851;45.648;9.004;2022-09-09T05:53:23;1.97;;;1.63;;
59062;SDS011;44851;45.648;9.004;2022-09-09T05:55:48;1.97;;;1.47;;
59062;SDS011;44851;45.648;9.004;2022-09-09T05:58:13;2.57;;;1.50;;
59062;SDS011;44851;45.648;9.004;2022-09-09T06:00:41;2.03;;;1.27;;
59062;SDS011;44851;45.648;9.004;2022-09-09T06:03:10;2.03;;;1.63;;
59062;SDS011;44851;45.648;9.004;2022-09-09T06:05:36;3.00;;;1.60;;
59062;SDS011;44851;45.648;9.004;2022-09-09T06:08:02;1.93;;;1.50;;
59062;SDS011;44851;45.648;9.004;2022-09-09T06:10:28;2.27;;;1.60;;
59062;SDS011;44851;45.648;9.004;2022-09-09T06:12:53;1.90;;;1.80;;
59062;SDS011;44851;45.648;9.004;2022-09-09T06:15:18;1.90;;;1.77;;
59062;SDS011;44851;45.648;9.004;2022-09-09T06:17:44;3.63;;;2.13;;
59062;SDS011;44851;45.648;9.004;2022-09-09T06:20:10;2.10;;;1.90;;
59062;SDS011;44851;45.648;9.004;2022-09-09T06:22:35;2.03;;;1.90;;
59062;SDS011;44851;45.648;9.004;2022-09-09T06:25:01;1.73;;;1.63;;
59062;SDS011;44851;45.648;9.004;2022-09-09T06:27:27;1.87;;;1.70;;
59062;SDS011;44851;45.648;9.004;2022-09-09T06:29:52;3.57;;;2.10;;
59062;SDS011;44851;45.648;9.004;2022-09-09T06:32:18;2.97;;;2.07;;
59062;SDS011;44851;45.648;9.004;2022-09-09T06:34:43;3.20;;;1.87;;
59062;SDS011;44851;45.648;9.004;2022-09-09T06:37:10;1.90;;;1.70;;
59062;SDS011;44851;45.648;9.004;2022-09-09T06:39:35;2.40;;;2.13;;
59062;SDS011;44851;45.648;9.004;2022-09-09T06:42:01;2.87;;;1.80;;
59062;SDS011;44851;45.648;9.004;2022-09-09T06:44:26;2.83;;;1.90;;
59062;SDS011;44851;45.648;9.004;2022-09-09T06:46:52;2.33;;;1.83;;
59062;SDS011;44851;45.648;9.004;2022-09-09T06:49:17;2.53;;;1.90;;
59062;SDS011;44851;45.648;9.004;2022-09-09T06:51:43;1.87;;;1.77;;
59062;SDS011;44851;45.648;9.004;2022-09-09T06:54:09;4.37;;;1.90;;
59062;SDS011;44851;45.648;9.004;2022-09-09T06:56:36;3.80;;;2.13;;
59062;SDS011;44851;45.648;9.004;2022-09-09T06:59:05;2.10;;;1.80;;
59062;SDS011;44851;45.648;9.004;2022-09-09T07:01:34;2.27;;;2.00;;
59062;SDS011;44851;45.648;9.004;2022-09-09T07:04:02;2.10;;;1.87;;
59062;SDS011;44851;45.648;9.004;2022-09-09T07:06:33;3.30;;;2.10;;
59062;SDS011;44851;45.648;9.004;2022-09-09T07:09:04;2.93;;;2.30;;
59062;SDS011;44851;45.648;9.004;2022-09-09T07:11:32;4.07;;;2.00;;
59062;SDS011;44851;45.648;9.004;2022-09-09T07:14:02;2.50;;;1.80;;
59062;SDS011;44851;45.648;9.004;2022-09-09T07:16:27;3.70;;;2.33;;
59062;SDS011;44851;45.648;9.004;2022-09-09T07:18:54;1.90;;;1.70;;
59062;SDS011;44851;45.648;9.004;2022-09-09T07:21:23;3.10;;;2.00;;
59062;SDS011;44851;45.648;9.004;2022-09-09T07:23:50;3.23;;;1.90;;
59062;SDS011;44851;45.648;9.004;2022-09-09T07:26:17;2.90;;;2.10;;
59062;SDS011;44851;45.648;9.004;2022-09-09T07:28:46;2.83;;;2.07;;
59062;SDS011;44851;45.648;9.004;2022-09-09T07:31:13;2.63;;;1.90;;
59062;SDS011;44851;45.648;9.004;2022-09-09T07:33:41;2.60;;;1.83;;
59062;SDS011;44851;45.648;9.004;2022-09-09T07:36:08;2.30;;;2.10;;
59062;SDS011;44851;45.648;9.004;2022-09-09T07:38:38;3.10;;;2.10;;
59062;SDS011;44851;45.648;9.004;2022-09-09T07:41:08;2.70;;;2.00;;
59062;SDS011;44851;45.648;9.004;2022-09-09T07:43:37;3.20;;;2.03;;
59062;SDS011;44851;45.648;9.004;2022-09-09T07:46:04;4.53;;;2.50;;
59062;SDS011;44851;45.648;9.004;2022-09-09T07:48:31;4.53;;;2.20;;
59062;SDS011;44851;45.648;9.004;2022-09-09T07:51:07;1.73;;;1.63;;
59062;SDS011;44851;45.648;9.004;2022-09-09T07:53:37;2.43;;;2.00;;
59062;SDS011;44851;45.648;9.004;2022-09-09T07:56:06;1.70;;;1.60;;
59062;SDS011;44851;45.648;9.004;2022-09-09T07:58:34;2.63;;;1.73;;
59062;SDS011;44851;45.648;9.004;2022-09-09T08:01:07;2.83;;;1.57;;
59062;SDS011;44851;45.648;9.004;2022-09-09T08:03:34;2.47;;;1.60;;
59062;SDS011;44851;45.648;9.004;2022-09-09T08:06:01;3.07;;;1.60;;
59062;SDS011;44851;45.648;9.004;2022-09-09T08:08:32;2.73;;;1.60;;
59062;SDS011;44851;45.648;9.004;2022-09-09T08:11:14;2.23;;;1.83;;
59062;SDS011;44851;45.648;9.004;2022-09-09T08:13:40;1.80;;;1.67;;
59062;SDS011;44851;45.648;9.004;2022-09-09T08:16:17;3.50;;;1.70;;
59062;SDS011;44851;45.648;9.004;2022-09-09T08:18:48;1.93;;;1.70;;
59062;SDS011;44851;45.648;9.004;2022-09-09T08:21:16;2.43;;;1.60;;
59062;SDS011;44851;45.648;9.004;2022-09-09T08:23:44;2.20;;;2.00;;
59062;SDS011;44851;45.648;9.004;2022-09-09T08:28:36;2.50;;;2.30;;
59062;SDS011;44851;45.648;9.004;2022-09-09T08:33:42;3.60;;;2.33;;
59062;SDS011;44851;45.648;9.004;2022-09-09T08:36:12;4.40;;;2.53;;
59062;SDS011;44851;45.648;9.004;2022-09-09T08:38:52;3.57;;;2.77;;
59062;SDS011;44851;45.648;9.004;2022-09-09T08:53:09;5.33;;;3.13;;
59062;SDS011;44851;45.648;9.004;2022-09-09T08:58:19;3.70;;;3.20;;
59062;SDS011;44851;45.648;9.004;2022-09-09T09:00:56;3.37;;;2.73;;
59062;SDS011;44851;45.648;9.004;2022-09-09T09:11:40;2.50;;;2.30;;
59062;SDS011;44851;45.648;9.004;2022-09-09T09:14:20;2.30;;;2.10;;
59062;SDS011;44851;45.648;9.004;2022-09-09T09:16:56;2.60;;;2.40;;
59062;SDS011;44851;45.648;9.004;2022-09-09T09:19:26;3.63;;;2.60;;
59062;SDS011;44851;45.648;9.004;2022-09-09T09:22:02;3.67;;;2.37;;
59062;SDS011;44851;45.648;9.004;2022-09-09T09:27:01;5.37;;;2.97;;
59062;SDS011;44851;45.648;9.004;2022-09-09T09:29:37;2.83;;;1.93;;
59062;SDS011;44851;45.648;9.004;2022-09-09T09:32:04;3.03;;;2.33;;
59062;SDS011;44851;45.648;9.004;2022-09-09T09:34:33;2.43;;;2.20;;
59062;SDS011;44851;45.648;9.004;2022-09-09T09:36:59;2.90;;;2.20;;
59062;SDS011;44851;45.648;9.004;2022-09-09T09:39:33;3.07;;;2.40;;
59062;SDS011;44851;45.648;9.004;2022-09-09T09:42:10;2.63;;;2.10;;
59062;SDS011;44851;45.648;9.004;2022-09-09T09:44:39;2.93;;;2.63;;
59062;SDS011;44851;45.648;9.004;2022-09-09T09:47:10;3.93;;;3.07;;
59062;SDS011;44851;45.648;9.004;2022-09-09T09:49:38;3.43;;;3.10;;
59062;SDS011;44851;45.648;9.004;2022-09-09T09:52:05;2.77;;;2.50;;
59062;SDS011;44851;45.648;9.004;2022-09-09T09:54:32;3.47;;;2.37;;
59062;SDS011;44851;45.648;9.004;2022-09-09T09:57:09;3.00;;;2.70;;
59062;SDS011;44851;45.648;9.004;2022-09-09T09:59:36;3.13;;;2.43;;
59062;SDS011;44851;45.648;9.004;2022-09-09T10:04:45;3.80;;;3.40;;
59062;SDS011;44851;45.648;9.004;2022-09-09T10:07:18;4.20;;;3.30;;
59062;SDS011;44851;45.648;9.004;2022-09-09T10:09:53;4.50;;;3.50;;
59062;SDS011;44851;45.648;9.004;2022-09-09T10:12:32;4.47;;;4.07;;
59062;SDS011;44851;45.648;9.004;2022-09-09T10:23:36;4.97;;;4.20;;
59062;SDS011;44851;45.648;9.004;2022-09-09T10:36:56;4.63;;;4.00;;
59062;SDS011;44851;45.648;9.004;2022-09-09T10:42:14;5.13;;;3.63;;
59062;SDS011;44851;45.648;9.004;2022-09-09T10:48:00;3.97;;;3.50;;
59062;SDS011;44851;45.648;9.004;2022-09-09T10:50:50;5.07;;;3.73;;
59062;SDS011;44851;45.648;9.004;2022-09-09T10:53:28;4.33;;;3.60;;
59062;SDS011;44851;45.648;9.004;2022-09-09T10:55:59;3.93;;;3.10;;
59062;SDS011;44851;45.648;9.004;2022-09-09T11:01:31;5.10;;;3.00;;
59062;SDS011;44851;45.648;9.004;2022-09-09T11:04:04;2.67;;;2.30;;
59062;SDS011;44851;45.648;9.004;2022-09-09T11:06:39;4.47;;;2.70;;
59062;SDS011;44851;45.648;9.004;2022-09-09T11:09:13;3.30;;;2.90;;
59062;SDS011;44851;45.648;9.004;2022-09-09T11:11:44;3.10;;;2.40;;
59062;SDS011;44851;45.648;9.004;2022-09-09T11:14:19;2.67;;;2.40;;
59062;SDS011;44851;45.648;9.004;2022-09-09T11:16:58;3.17;;;2.70;;
59062;SDS011;44851;45.648;9.004;2022-09-09T11:19:37;4.00;;;3.10;;
59062;SDS011;44851;45.648;9.004;2022-09-09T11:22:07;2.80;;;2.60;;
59062;SDS011;44851;45.648;9.004;2022-09-09T11:24:45;4.50;;;2.50;;
59062;SDS011;44851;45.648;9.004;2022-09-09T11:27:19;4.27;;;2.73;;
59062;SDS011;44851;45.648;9.004;2022-09-09T11:32:40;3.20;;;2.90;;
59062;SDS011;44851;45.648;9.004;2022-09-09T11:35:32;3.20;;;2.90;;
59062;SDS011;44851;45.648;9.004;2022-09-09T11:41:04;5.33;;;3.30;;
59062;SDS011;44851;45.648;9.004;2022-09-09T11:43:39;3.50;;;2.90;;
59062;SDS011;44851;45.648;9.004;2022-09-09T11:46:07;3.27;;;2.97;;
59062;SDS011;44851;45.648;9.004;2022-09-09T11:48:44;3.17;;;2.77;;
59062;SDS011;44851;45.648;9.004;2022-09-09T11:53:48;4.57;;;2.90;;
59062;SDS011;44851;45.648;9.004;2022-09-09T11:56:23;3.67;;;2.60;;
59062;SDS011;44851;45.648;9.004;2022-09-09T11:59:01;4.53;;;3.07;;
59062;SDS011;44851;45.648;9.004;2022-09-09T12:06:53;3.20;;;2.60;;
59062;SDS011;44851;45.648;9.004;2022-09-09T12:09:23;3.33;;;2.70;;
59062;SDS011;44851;45.648;9.004;2022-09-09T12:19:40;3.87;;;2.40;;
59062;SDS011;44851;45.648;9.004;2022-09-09T12:25:09;3.73;;;2.77;;
59062;SDS011;44851;45.648;9.004;2022-09-09T12:28:11;3.20;;;2.60;;
59062;SDS011;44851;45.648;9.004;2022-09-09T12:30:43;3.80;;;3.13;;
59062;SDS011;44851;45.648;9.004;2022-09-09T12:33:18;3.33;;;2.60;;
59062;SDS011;44851;45.648;9.004;2022-09-09T12:35:44;5.40;;;2.93;;
59062;SDS011;44851;45.648;9.004;2022-09-09T12:38:20;6.03;;;2.80;;
59062;SDS011;44851;45.648;9.004;2022-09-09T12:40:55;4.13;;;2.87;;
59062;SDS011;44851;45.648;9.004;2022-09-09T12:43:22;3.87;;;2.23;;
59062;SDS011;44851;45.648;9.004;2022-09-09T12:45:50;4.13;;;2.80;;
59062;SDS011;44851;45.648;9.004;2022-09-09T12:48:22;3.07;;;2.60;;
59062;SDS011;44851;45.648;9.004;2022-09-09T12:50:55;2.83;;;2.23;;
59062;SDS011;44851;45.648;9.004;2022-09-09T12:53:34;3.20;;;2.40;;
59062;SDS011;44851;45.648;9.004;2022-09-09T12:56:04;3.70;;;2.77;;
59062;SDS011;44851;45.648;9.004;2022-09-09T12:58:33;4.33;;;2.83;;
59062;SDS011;44851;45.648;9.004;2022-09-09T13:01:01;3.10;;;2.67;;
59062;SDS011;44851;45.648;9.004;2022-09-09T13:03:30;3.50;;;2.60;;
59062;SDS011;44851;45.648;9.004;2022-09-09T13:06:10;3.73;;;2.30;;
59062;SDS011;44851;45.648;9.004;2022-09-09T13:08:37;3.60;;;2.83;;
59062;SDS011;44851;45.648;9.004;2022-09-09T13:11:03;3.63;;;3.10;;
59062;SDS011;44851;45.648;9.004;2022-09-09T13:13:36;2.93;;;2.40;;
59062;SDS011;44851;45.648;9.004;2022-09-09T13:16:03;3.53;;;2.80;;
59062;SDS011;44851;45.648;9.004;2022-09-09T13:18:33;3.77;;;2.80;;
59062;SDS011;44851;45.648;9.004;2022-09-09T13:21:01;3.77;;;3.00;;
59062;SDS011;44851;45.648;9.004;2022-09-09T13:23:27;3.23;;;2.70;;
59062;SDS011;44851;45.648;9.004;2022-09-09T13:25:58;3.70;;;2.60;;
59062;SDS011;44851;45.648;9.004;2022-09-09T13:28:43;2.80;;;2.57;;
59062;SDS011;44851;45.648;9.004;2022-09-09T13:31:24;2.90;;;2.60;;
59062;SDS011;44851;45.648;9.004;2022-09-09T13:33:49;3.60;;;2.53;;
59062;SDS011;44851;45.648;9.004;2022-09-09T13:36:15;2.80;;;2.33;;
59062;SDS011;44851;45.648;9.004;2022-09-09T13:38:53;3.23;;;2.83;;
59062;SDS011;44851;45.648;9.004;2022-09-09T13:42:03;3.40;;;2.57;;
59062;SDS011;44851;45.648;9.004;2022-09-09T13:44:20;3.90;;;2.80;;
59062;SDS011;44851;45.648;9.004;2022-09-09T13:47:03;3.07;;;2.50;;
59062;SDS011;44851;45.648;9.004;2022-09-09T13:49:31;3.47;;;2.90;;
59062;SDS011;44851;45.648;9.004;2022-09-09T13:54:41;3.93;;;2.87;;
59062;SDS011;44851;45.648;9.004;2022-09-09T13:57:18;3.67;;;2.87;;
59062;SDS011;44851;45.648;9.004;2022-09-09T13:59:45;3.97;;;3.33;;
59062;SDS011;44851;45.648;9.004;2022-09-09T14:02:12;4.57;;;2.97;;
59062;SDS011;44851;45.648;9.004;2022-09-09T14:04:38;4.13;;;3.10;;
59062;SDS011;44851;45.648;9.004;2022-09-09T14:07:07;3.23;;;2.93;;
59062;SDS011;44851;45.648;9.004;2022-09-09T14:09:36;4.77;;;3.00;;
59062;SDS011;44851;45.648;9.004;2022-09-09T14:12:01;3.77;;;2.70;;
59062;SDS011;44851;45.648;9.004;2022-09-09T14:14:27;4.43;;;2.70;;
59062;SDS011;44851;45.648;9.004;2022-09-09T14:16:52;3.63;;;2.37;;
59062;SDS011;44851;45.648;9.004;2022-09-09T14:19:18;5.17;;;2.60;;
59062;SDS011;44851;45.648;9.004;2022-09-09T14:21:43;3.00;;;2.30;;
59062;SDS011;44851;45.648;9.004;2022-09-09T14:24:08;3.37;;;2.63;;
59062;SDS011;44851;45.648;9.004;2022-09-09T14:26:34;3.37;;;2.43;;
59062;SDS011;44851;45.648;9.004;2022-09-09T14:28:59;5.57;;;2.43;;
59062;SDS011;44851;45.648;9.004;2022-09-09T14:31:26;6.40;;;2.50;;
59062;SDS011;44851;45.648;9.004;2022-09-09T14:33:51;4.07;;;2.40;;
59062;SDS011;44851;45.648;9.004;2022-09-09T14:36:17;5.53;;;3.10;;
59062;SDS011;44851;45.648;9.004;2022-09-09T14:38:43;5.87;;;2.33;;
59062;SDS011;44851;45.648;9.004;2022-09-09T14:41:09;3.10;;;2.20;;
59062;SDS011;44851;45.648;9.004;2022-09-09T14:43:39;4.83;;;2.80;;
59062;SDS011;44851;45.648;9.004;2022-09-09T14:46:08;4.67;;;2.20;;
59062;SDS011;44851;45.648;9.004;2022-09-09T14:48:35;4.80;;;2.60;;
59062;SDS011;44851;45.648;9.004;2022-09-09T14:51:08;4.70;;;2.30;;
59062;SDS011;44851;45.648;9.004;2022-09-09T14:53:35;4.50;;;2.30;;
59062;SDS011;44851;45.648;9.004;2022-09-09T14:56:08;4.57;;;2.53;;
59062;SDS011;44851;45.648;9.004;2022-09-09T14:58:35;3.53;;;2.40;;
59062;SDS011;44851;45.648;9.004;2022-09-09T15:01:02;3.50;;;2.47;;
59062;SDS011;44851;45.648;9.004;2022-09-09T15:03:30;5.00;;;2.17;;
59062;SDS011;44851;45.648;9.004;2022-09-09T15:05:55;3.67;;;2.33;;
59062;SDS011;44851;45.648;9.004;2022-09-09T15:08:23;3.27;;;2.67;;
59062;SDS011;44851;45.648;9.004;2022-09-09T15:10:49;3.27;;;2.50;;
59062;SDS011;44851;45.648;9.004;2022-09-09T15:13:15;2.87;;;2.60;;
59062;SDS011;44851;45.648;9.004;2022-09-09T15:15:42;2.60;;;2.40;;
59062;SDS011;44851;45.648;9.004;2022-09-09T15:18:08;4.40;;;2.80;;
59062;SDS011;44851;45.648;9.004;2022-09-09T15:20:33;5.47;;;2.70;;
59062;SDS011;44851;45.648;9.004;2022-09-09T15:22:59;3.50;;;2.57;;
59062;SDS011;44851;45.648;9.004;2022-09-09T15:25:25;5.50;;;2.70;;
59062;SDS011;44851;45.648;9.004;2022-09-09T15:27:51;3.63;;;2.53;;
59062;SDS011;44851;45.648;9.004;2022-09-09T15:30:16;5.97;;;2.37;;
59062;SDS011;44851;45.648;9.004;2022-09-09T15:32:41;5.47;;;2.97;;
59062;SDS011;44851;45.648;9.004;2022-09-09T15:35:07;2.90;;;2.33;;
59062;SDS011;44851;45.648;9.004;2022-09-09T15:37:32;3.87;;;2.20;;
59062;SDS011;44851;45.648;9.004;2022-09-09T15:39:57;4.80;;;2.60;;
59062;SDS011;44851;45.648;9.004;2022-09-09T15:42:24;6.07;;;3.13;;
59062;SDS011;44851;45.648;9.004;2022-09-09T15:44:50;4.20;;;3.00;;
59062;SDS011;44851;45.648;9.004;2022-09-09T15:47:15;4.77;;;2.90;;
59062;SDS011;44851;45.648;9.004;2022-09-09T15:49:41;3.87;;;2.53;;
59062;SDS011;44851;45.648;9.004;2022-09-09T15:52:08;4.53;;;2.93;;
59062;SDS011;44851;45.648;9.004;2022-09-09T15:54:36;3.77;;;3.03;;
59062;SDS011;44851;45.648;9.004;2022-09-09T15:57:04;3.77;;;2.50;;
59062;SDS011;44851;45.648;9.004;2022-09-09T15:59:32;3.53;;;2.60;;
59062;SDS011;44851;45.648;9.004;2022-09-09T16:01:59;3.07;;;2.30;;
59062;SDS011;44851;45.648;9.004;2022-09-09T16:04:25;3.43;;;2.40;;
59062;SDS011;44851;45.648;9.004;2022-09-09T16:06:54;4.80;;;2.37;;
59062;SDS011;44851;45.648;9.004;2022-09-09T16:09:25;3.00;;;2.27;;
59062;SDS011;44851;45.648;9.004;2022-09-09T16:11:51;3.40;;;2.20;;
59062;SDS011;44851;45.648;9.004;2022-09-09T16:14:18;3.60;;;2.07;;
59062;SDS011;44851;45.648;9.004;2022-09-09T16:16:44;3.73;;;2.10;;
59062;SDS011;44851;45.648;9.004;2022-09-09T16:19:10;2.57;;;2.10;;
59062;SDS011;44851;45.648;9.004;2022-09-09T16:21:47;2.83;;;2.10;;
59062;SDS011;44851;45.648;9.004;2022-09-09T16:24:15;2.63;;;2.07;;
59062;SDS011;44851;45.648;9.004;2022-09-09T16:26:44;3.10;;;2.40;;
59062;SDS011;44851;45.648;9.004;2022-09-09T16:29:11;3.93;;;2.10;;
59062;SDS011;44851;45.648;9.004;2022-09-09T16:31:38;3.67;;;2.23;;
59062;SDS011;44851;45.648;9.004;2022-09-09T16:34:04;2.60;;;2.27;;
59062;SDS011;44851;45.648;9.004;2022-09-09T16:36:31;3.00;;;2.40;;
59062;SDS011;44851;45.648;9.004;2022-09-09T16:39:01;1.87;;;1.77;;
59062;SDS011;44851;45.648;9.004;2022-09-09T16:41:29;5.17;;;2.00;;
59062;SDS011;44851;45.648;9.004;2022-09-09T16:43:59;2.20;;;2.00;;
59062;SDS011;44851;45.648;9.004;2022-09-09T16:46:28;3.43;;;2.30;;
59062;SDS011;44851;45.648;9.004;2022-09-09T16:48:58;2.87;;;1.83;;
59062;SDS011;44851;45.648;9.004;2022-09-09T16:51:27;3.70;;;2.17;;
59062;SDS011;44851;45.648;9.004;2022-09-09T16:53:54;4.87;;;2.30;;
59062;SDS011;44851;45.648;9.004;2022-09-09T16:56:24;4.73;;;2.10;;
59062;SDS011;44851;45.648;9.004;2022-09-09T16:58:54;3.10;;;2.17;;
59062;SDS011;44851;45.648;9.004;2022-09-09T17:01:22;3.20;;;2.60;;
59062;SDS011;44851;45.648;9.004;2022-09-09T17:03:52;2.87;;;2.27;;
59062;SDS011;44851;45.648;9.004;2022-09-09T17:06:21;2.63;;;2.33;;